sensor_id;sensor_type;location;lat;lon;timestamp;P1;durP1;ratioP1;P2;durP2;ratioP2
17151;SDS011;8691;50.828;4.700;2022-10-15T00:00:19;18.40;;;16.80;;
17151;SDS011;8691;50.828;4.700;2022-10-15T00:02:47;16.50;;;15.00;;
17151;SDS011;8691;50.828;4.700;2022-10-15T00:05:13;15.57;;;14.13;;
17151;SDS011;8691;50.828;4.700;2022-10-15T00:07:41;17.60;;;15.77;;
17151;SDS011;8691;50.828;4.700;2022-10-15T00:10:07;17.73;;;15.80;;
17151;SDS011;8691;50.828;4.700;2022-10-15T00:12:34;21.60;;;19.67;;
17151;SDS011;8691;50.828;4.700;2022-10-15T00:15:01;24.52;;;22.27;;
17151;SDS011;8691;50.828;4.700;2022-10-15T00:17:28;24.00;;;21.83;;
17151;SDS011;8691;50.828;4.700;2022-10-15T00:19:54;21.13;;;18.93;;
17151;SDS011;8691;50.828;4.700;2022-10-15T00:22:21;24.10;;;21.70;;
17151;SDS011;8691;50.828;4.700;2022-10-15T00:24:48;24.77;;;22.47;;
17151;SDS011;8691;50.828;4.700;2022-10-15T00:27:15;21.23;;;19.17;;
17151;SDS011;8691;50.828;4.700;2022-10-15T00:29:42;26.15;;;23.67;;
17151;SDS011;8691;50.828;4.700;2022-10-15T00:32:09;23.03;;;20.73;;
17151;SDS011;8691;50.828;4.700;2022-10-15T00:34:36;22.90;;;20.60;;
17151;SDS011;8691;50.828;4.700;2022-10-15T00:37:02;21.33;;;19.10;;
17151;SDS011;8691;50.828;4.700;2022-10-15T00:39:29;27.80;;;25.10;;
17151;SDS011;8691;50.828;4.700;2022-10-15T00:41:56;24.07;;;21.77;;
17151;SDS011;8691;50.828;4.700;2022-10-15T00:46:58;29.58;;;26.77;;
17151;SDS011;8691;50.828;4.700;2022-10-15T00:49:23;30.02;;;27.33;;
17151;SDS011;8691;50.828;4.700;2022-10-15T00:52:11;29.73;;;26.83;;
17151;SDS011;8691;50.828;4.700;2022-10-15T00:54:39;24.80;;;22.30;;
17151;SDS011;8691;50.828;4.700;2022-10-15T00:57:07;24.25;;;21.73;;
17151;SDS011;8691;50.828;4.700;2022-10-15T00:59:35;23.53;;;21.17;;
17151;SDS011;8691;50.828;4.700;2022-10-15T01:02:00;29.50;;;26.70;;
17151;SDS011;8691;50.828;4.700;2022-10-15T01:04:27;31.73;;;28.08;;
17151;SDS011;8691;50.828;4.700;2022-10-15T01:06:54;31.55;;;28.35;;
17151;SDS011;8691;50.828;4.700;2022-10-15T01:09:21;25.83;;;23.20;;
17151;SDS011;8691;50.828;4.700;2022-10-15T01:11:50;30.57;;;27.67;;
17151;SDS011;8691;50.828;4.700;2022-10-15T01:22:45;29.47;;;26.67;;
17151;SDS011;8691;50.828;4.700;2022-10-15T01:30:56;29.53;;;26.60;;
17151;SDS011;8691;50.828;4.700;2022-10-15T01:33:23;24.30;;;21.85;;
17151;SDS011;8691;50.828;4.700;2022-10-15T01:35:53;29.53;;;26.53;;
17151;SDS011;8691;50.828;4.700;2022-10-15T01:38:30;25.00;;;22.27;;
17151;SDS011;8691;50.828;4.700;2022-10-15T01:41:05;29.47;;;26.60;;
17151;SDS011;8691;50.828;4.700;2022-10-15T01:43:32;30.20;;;27.08;;
17151;SDS011;8691;50.828;4.700;2022-10-15T01:46:05;30.00;;;26.95;;
17151;SDS011;8691;50.828;4.700;2022-10-15T01:48:29;30.02;;;27.10;;
17151;SDS011;8691;50.828;4.700;2022-10-15T01:50:58;26.27;;;23.47;;
17151;SDS011;8691;50.828;4.700;2022-10-15T01:53:25;28.70;;;26.00;;
17151;SDS011;8691;50.828;4.700;2022-10-15T01:55:57;29.93;;;27.03;;
17151;SDS011;8691;50.828;4.700;2022-10-15T01:58:23;29.77;;;26.67;;
17151;SDS011;8691;50.828;4.700;2022-10-15T02:00:51;30.23;;;27.20;;
17151;SDS011;8691;50.828;4.700;2022-10-15T02:03:17;30.83;;;27.70;;
17151;SDS011;8691;50.828;4.700;2022-10-15T02:05:46;30.37;;;27.40;;
17151;SDS011;8691;50.828;4.700;2022-10-15T02:08:14;30.43;;;27.43;;
17151;SDS011;8691;50.828;4.700;2022-10-15T02:10:48;30.50;;;27.33;;
17151;SDS011;8691;50.828;4.700;2022-10-15T02:21:21;30.30;;;27.25;;
17151;SDS011;8691;50.828;4.700;2022-10-15T02:24:01;30.08;;;27.00;;
17151;SDS011;8691;50.828;4.700;2022-10-15T02:26:38;24.70;;;22.03;;
17151;SDS011;8691;50.828;4.700;2022-10-15T02:29:06;29.23;;;26.23;;
17151;SDS011;8691;50.828;4.700;2022-10-15T02:31:32;30.15;;;26.98;;
17151;SDS011;8691;50.828;4.700;2022-10-15T02:34:04;27.93;;;22.83;;
17151;SDS011;8691;50.828;4.700;2022-10-15T02:36:29;29.23;;;26.13;;
17151;SDS011;8691;50.828;4.700;2022-10-15T02:38:55;30.07;;;26.90;;
17151;SDS011;8691;50.828;4.700;2022-10-15T02:41:23;28.60;;;22.60;;
17151;SDS011;8691;50.828;4.700;2022-10-15T02:43:50;29.58;;;26.35;;
17151;SDS011;8691;50.828;4.700;2022-10-15T02:46:16;31.63;;;27.10;;
17151;SDS011;8691;50.828;4.700;2022-10-15T02:48:44;26.83;;;21.77;;
17151;SDS011;8691;50.828;4.700;2022-10-15T02:51:11;29.97;;;26.77;;
17151;SDS011;8691;50.828;4.700;2022-10-15T02:53:38;31.27;;;27.90;;
17151;SDS011;8691;50.828;4.700;2022-10-15T02:56:05;26.17;;;22.73;;
17151;SDS011;8691;50.828;4.700;2022-10-15T02:58:33;32.17;;;27.43;;
17151;SDS011;8691;50.828;4.700;2022-10-15T03:01:00;31.02;;;26.85;;
17151;SDS011;8691;50.828;4.700;2022-10-15T03:03:27;30.12;;;26.80;;
17151;SDS011;8691;50.828;4.700;2022-10-15T03:05:54;30.33;;;27.13;;
17151;SDS011;8691;50.828;4.700;2022-10-15T03:08:23;29.20;;;26.13;;
17151;SDS011;8691;50.828;4.700;2022-10-15T03:10:49;29.43;;;26.23;;
17151;SDS011;8691;50.828;4.700;2022-10-15T03:13:16;29.35;;;26.33;;
17151;SDS011;8691;50.828;4.700;2022-10-15T03:15:43;29.85;;;26.75;;
17151;SDS011;8691;50.828;4.700;2022-10-15T03:18:10;24.07;;;21.47;;
17151;SDS011;8691;50.828;4.700;2022-10-15T03:20:37;29.08;;;25.60;;
17151;SDS011;8691;50.828;4.700;2022-10-15T03:23:04;29.00;;;25.80;;
17151;SDS011;8691;50.828;4.700;2022-10-15T03:25:30;28.77;;;25.58;;
17151;SDS011;8691;50.828;4.700;2022-10-15T03:27:57;27.43;;;24.60;;
17151;SDS011;8691;50.828;4.700;2022-10-15T03:30:24;27.73;;;24.73;;
17151;SDS011;8691;50.828;4.700;2022-10-15T03:32:52;23.87;;;20.60;;
17151;SDS011;8691;50.828;4.700;2022-10-15T03:35:18;23.23;;;19.17;;
17151;SDS011;8691;50.828;4.700;2022-10-15T03:37:45;22.80;;;18.37;;
17151;SDS011;8691;50.828;4.700;2022-10-15T03:40:12;25.23;;;22.60;;
17151;SDS011;8691;50.828;4.700;2022-10-15T03:42:39;25.23;;;22.62;;
17151;SDS011;8691;50.828;4.700;2022-10-15T03:45:06;24.30;;;21.85;;
17151;SDS011;8691;50.828;4.700;2022-10-15T03:47:33;24.33;;;21.90;;
17151;SDS011;8691;50.828;4.700;2022-10-15T03:49:59;21.17;;;17.83;;
17151;SDS011;8691;50.828;4.700;2022-10-15T03:52:26;22.70;;;20.35;;
17151;SDS011;8691;50.828;4.700;2022-10-15T03:54:53;22.98;;;20.67;;
17151;SDS011;8691;50.828;4.700;2022-10-15T03:57:20;21.97;;;19.77;;
17151;SDS011;8691;50.828;4.700;2022-10-15T03:59:48;22.10;;;19.87;;
17151;SDS011;8691;50.828;4.700;2022-10-15T04:02:15;20.35;;;18.25;;
17151;SDS011;8691;50.828;4.700;2022-10-15T04:04:41;17.10;;;15.27;;
17151;SDS011;8691;50.828;4.700;2022-10-15T04:07:08;20.08;;;18.08;;
17151;SDS011;8691;50.828;4.700;2022-10-15T04:09:35;17.60;;;15.70;;
17151;SDS011;8691;50.828;4.700;2022-10-15T04:12:02;20.58;;;18.58;;
17151;SDS011;8691;50.828;4.700;2022-10-15T04:14:30;21.25;;;19.15;;
17151;SDS011;8691;50.828;4.700;2022-10-15T04:16:56;21.33;;;19.23;;
17151;SDS011;8691;50.828;4.700;2022-10-15T04:19:23;21.35;;;19.35;;
17151;SDS011;8691;50.828;4.700;2022-10-15T04:21:50;20.40;;;18.42;;
17151;SDS011;8691;50.828;4.700;2022-10-15T04:24:16;17.20;;;15.30;;
17151;SDS011;8691;50.828;4.700;2022-10-15T04:26:43;18.13;;;15.67;;
17151;SDS011;8691;50.828;4.700;2022-10-15T04:29:10;19.92;;;17.92;;
17151;SDS011;8691;50.828;4.700;2022-10-15T04:31:37;18.43;;;15.50;;
17151;SDS011;8691;50.828;4.700;2022-10-15T04:34:04;21.70;;;19.45;;
17151;SDS011;8691;50.828;4.700;2022-10-15T04:36:31;22.05;;;19.65;;
17151;SDS011;8691;50.828;4.700;2022-10-15T04:38:58;22.38;;;20.17;;
17151;SDS011;8691;50.828;4.700;2022-10-15T04:41:26;22.50;;;20.12;;
17151;SDS011;8691;50.828;4.700;2022-10-15T04:43:53;22.83;;;20.33;;
17151;SDS011;8691;50.828;4.700;2022-10-15T04:46:19;23.13;;;20.73;;
17151;SDS011;8691;50.828;4.700;2022-10-15T04:48:46;19.23;;;16.27;;
17151;SDS011;8691;50.828;4.700;2022-10-15T04:51:14;23.45;;;20.90;;
17151;SDS011;8691;50.828;4.700;2022-10-15T04:53:40;24.58;;;21.55;;
17151;SDS011;8691;50.828;4.700;2022-10-15T04:56:08;23.85;;;21.25;;
17151;SDS011;8691;50.828;4.700;2022-10-15T04:58:34;23.05;;;20.30;;
17151;SDS011;8691;50.828;4.700;2022-10-15T05:01:05;21.65;;;19.30;;
17151;SDS011;8691;50.828;4.700;2022-10-15T05:03:29;21.12;;;18.90;;
17151;SDS011;8691;50.828;4.700;2022-10-15T05:06:00;21.07;;;18.87;;
17151;SDS011;8691;50.828;4.700;2022-10-15T05:08:27;20.23;;;18.10;;
17151;SDS011;8691;50.828;4.700;2022-10-15T05:10:53;19.67;;;17.57;;
17151;SDS011;8691;50.828;4.700;2022-10-15T05:13:20;20.20;;;17.65;;
17151;SDS011;8691;50.828;4.700;2022-10-15T05:15:47;19.67;;;16.80;;
17151;SDS011;8691;50.828;4.700;2022-10-15T05:18:14;19.20;;;17.20;;
17151;SDS011;8691;50.828;4.700;2022-10-15T05:20:41;20.00;;;17.23;;
17151;SDS011;8691;50.828;4.700;2022-10-15T05:23:07;18.52;;;16.55;;
17151;SDS011;8691;50.828;4.700;2022-10-15T05:25:34;19.40;;;16.48;;
17151;SDS011;8691;50.828;4.700;2022-10-15T05:28:01;17.83;;;15.55;;
17151;SDS011;8691;50.828;4.700;2022-10-15T05:30:29;16.50;;;13.03;;
17151;SDS011;8691;50.828;4.700;2022-10-15T05:32:55;14.70;;;11.67;;
17151;SDS011;8691;50.828;4.700;2022-10-15T05:35:22;16.73;;;14.40;;
17151;SDS011;8691;50.828;4.700;2022-10-15T05:37:49;16.67;;;14.10;;
17151;SDS011;8691;50.828;4.700;2022-10-15T05:40:16;18.27;;;14.23;;
17151;SDS011;8691;50.828;4.700;2022-10-15T05:42:43;16.70;;;13.70;;
17151;SDS011;8691;50.828;4.700;2022-10-15T05:45:10;14.57;;;12.98;;
17151;SDS011;8691;50.828;4.700;2022-10-15T05:47:37;16.12;;;12.93;;
17151;SDS011;8691;50.828;4.700;2022-10-15T05:50:04;14.23;;;11.00;;
17151;SDS011;8691;50.828;4.700;2022-10-15T05:52:31;14.45;;;12.32;;
17151;SDS011;8691;50.828;4.700;2022-10-15T05:54:59;13.62;;;11.95;;
17151;SDS011;8691;50.828;4.700;2022-10-15T05:57:26;13.75;;;11.93;;
17151;SDS011;8691;50.828;4.700;2022-10-15T05:59:53;13.88;;;12.00;;
17151;SDS011;8691;50.828;4.700;2022-10-15T06:02:20;12.63;;;11.27;;
17151;SDS011;8691;50.828;4.700;2022-10-15T06:04:47;13.90;;;12.50;;
17151;SDS011;8691;50.828;4.700;2022-10-15T06:07:14;12.37;;;11.17;;
17151;SDS011;8691;50.828;4.700;2022-10-15T06:09:41;13.27;;;11.10;;
17151;SDS011;8691;50.828;4.700;2022-10-15T06:12:08;10.67;;;9.57;;
17151;SDS011;8691;50.828;4.700;2022-10-15T06:14:35;11.03;;;9.90;;
17151;SDS011;8691;50.828;4.700;2022-10-15T06:17:02;9.03;;;7.47;;
17151;SDS011;8691;50.828;4.700;2022-10-15T06:19:29;10.50;;;9.00;;
17151;SDS011;8691;50.828;4.700;2022-10-15T06:21:56;8.68;;;7.78;;
17151;SDS011;8691;50.828;4.700;2022-10-15T06:24:23;9.23;;;7.93;;
17151;SDS011;8691;50.828;4.700;2022-10-15T06:26:50;8.80;;;7.72;;
17151;SDS011;8691;50.828;4.700;2022-10-15T06:29:17;8.13;;;6.80;;
17151;SDS011;8691;50.828;4.700;2022-10-15T06:31:44;7.47;;;6.68;;
17151;SDS011;8691;50.828;4.700;2022-10-15T06:34:11;7.28;;;6.57;;
17151;SDS011;8691;50.828;4.700;2022-10-15T06:36:38;7.33;;;6.50;;
17151;SDS011;8691;50.828;4.700;2022-10-15T06:39:04;6.70;;;4.60;;
17151;SDS011;8691;50.828;4.700;2022-10-15T06:41:31;6.38;;;5.78;;
17151;SDS011;8691;50.828;4.700;2022-10-15T06:43:58;6.00;;;4.73;;
17151;SDS011;8691;50.828;4.700;2022-10-15T06:46:25;6.00;;;5.40;;
17151;SDS011;8691;50.828;4.700;2022-10-15T06:48:51;4.60;;;4.13;;
17151;SDS011;8691;50.828;4.700;2022-10-15T06:51:18;5.05;;;4.45;;
17151;SDS011;8691;50.828;4.700;2022-10-15T06:53:45;5.47;;;4.60;;
17151;SDS011;8691;50.828;4.700;2022-10-15T06:56:12;5.47;;;4.90;;
17151;SDS011;8691;50.828;4.700;2022-10-15T06:58:40;3.67;;;3.37;;
17151;SDS011;8691;50.828;4.700;2022-10-15T07:01:06;4.30;;;3.90;;
17151;SDS011;8691;50.828;4.700;2022-10-15T07:03:32;4.43;;;3.92;;
17151;SDS011;8691;50.828;4.700;2022-10-15T07:06:01;4.28;;;3.88;;
17151;SDS011;8691;50.828;4.700;2022-10-15T07:08:30;3.97;;;3.57;;
17151;SDS011;8691;50.828;4.700;2022-10-15T07:10:57;3.80;;;3.40;;
17151;SDS011;8691;50.828;4.700;2022-10-15T07:13:23;4.15;;;3.30;;
17151;SDS011;8691;50.828;4.700;2022-10-15T07:15:50;2.90;;;2.70;;
17151;SDS011;8691;50.828;4.700;2022-10-15T07:18:17;3.30;;;3.00;;
17151;SDS011;8691;50.828;4.700;2022-10-15T07:20:43;2.80;;;2.57;;
17151;SDS011;8691;50.828;4.700;2022-10-15T07:23:10;3.30;;;3.00;;
17151;SDS011;8691;50.828;4.700;2022-10-15T07:25:37;2.73;;;2.50;;
17151;SDS011;8691;50.828;4.700;2022-10-15T07:28:04;4.05;;;2.85;;
17151;SDS011;8691;50.828;4.700;2022-10-15T07:30:31;2.75;;;2.47;;
17151;SDS011;8691;50.828;4.700;2022-10-15T07:32:58;2.92;;;2.70;;
17151;SDS011;8691;50.828;4.700;2022-10-15T07:35:25;2.75;;;2.55;;
17151;SDS011;8691;50.828;4.700;2022-10-15T07:37:52;2.70;;;2.30;;
17151;SDS011;8691;50.828;4.700;2022-10-15T07:40:18;3.80;;;2.20;;
17151;SDS011;8691;50.828;4.700;2022-10-15T07:42:51;2.30;;;2.10;;
17151;SDS011;8691;50.828;4.700;2022-10-15T07:45:18;2.20;;;2.00;;
17151;SDS011;8691;50.828;4.700;2022-10-15T07:47:45;2.33;;;2.12;;
17151;SDS011;8691;50.828;4.700;2022-10-15T07:50:11;2.10;;;2.00;;
17151;SDS011;8691;50.828;4.700;2022-10-15T07:52:38;2.05;;;1.95;;
17151;SDS011;8691;50.828;4.700;2022-10-15T07:55:05;2.38;;;2.10;;
17151;SDS011;8691;50.828;4.700;2022-10-15T07:57:32;2.40;;;2.20;;
17151;SDS011;8691;50.828;4.700;2022-10-15T07:59:59;1.83;;;1.73;;
17151;SDS011;8691;50.828;4.700;2022-10-15T08:02:26;2.30;;;2.10;;
17151;SDS011;8691;50.828;4.700;2022-10-15T08:04:52;2.50;;;2.30;;
17151;SDS011;8691;50.828;4.700;2022-10-15T08:07:19;1.83;;;1.70;;
17151;SDS011;8691;50.828;4.700;2022-10-15T08:09:46;2.47;;;2.27;;
17151;SDS011;8691;50.828;4.700;2022-10-15T08:12:13;2.10;;;2.00;;
17151;SDS011;8691;50.828;4.700;2022-10-15T08:14:40;1.80;;;1.70;;
17151;SDS011;8691;50.828;4.700;2022-10-15T08:17:07;2.60;;;1.70;;
17151;SDS011;8691;50.828;4.700;2022-10-15T08:19:34;1.90;;;1.80;;
17151;SDS011;8691;50.828;4.700;2022-10-15T08:22:01;1.80;;;1.70;;
17151;SDS011;8691;50.828;4.700;2022-10-15T08:24:28;1.90;;;1.67;;
17151;SDS011;8691;50.828;4.700;2022-10-15T08:26:56;1.58;;;1.48;;
17151;SDS011;8691;50.828;4.700;2022-10-15T08:29:22;1.40;;;1.30;;
17151;SDS011;8691;50.828;4.700;2022-10-15T08:31:48;1.43;;;1.20;;
17151;SDS011;8691;50.828;4.700;2022-10-15T08:34:15;1.40;;;1.20;;
17151;SDS011;8691;50.828;4.700;2022-10-15T08:36:42;1.20;;;1.10;;
17151;SDS011;8691;50.828;4.700;2022-10-15T08:39:10;1.02;;;0.95;;
17151;SDS011;8691;50.828;4.700;2022-10-15T08:41:38;1.00;;;0.90;;
17151;SDS011;8691;50.828;4.700;2022-10-15T08:44:15;1.73;;;0.90;;
17151;SDS011;8691;50.828;4.700;2022-10-15T08:46:38;0.77;;;0.73;;
17151;SDS011;8691;50.828;4.700;2022-10-15T08:49:12;0.98;;;0.80;;
17151;SDS011;8691;50.828;4.700;2022-10-15T08:51:37;0.70;;;0.70;;
17151;SDS011;8691;50.828;4.700;2022-10-15T08:54:01;1.10;;;0.80;;
17151;SDS011;8691;50.828;4.700;2022-10-15T08:56:38;0.70;;;0.70;;
17151;SDS011;8691;50.828;4.700;2022-10-15T09:01:56;1.30;;;0.70;;
17151;SDS011;8691;50.828;4.700;2022-10-15T09:04:27;1.80;;;0.60;;
17151;SDS011;8691;50.828;4.700;2022-10-15T09:06:58;0.60;;;0.57;;
17151;SDS011;8691;50.828;4.700;2022-10-15T09:09:27;1.57;;;0.60;;
17151;SDS011;8691;50.828;4.700;2022-10-15T09:14:45;1.50;;;0.60;;
17151;SDS011;8691;50.828;4.700;2022-10-15T09:19:45;0.43;;;0.43;;
17151;SDS011;8691;50.828;4.700;2022-10-15T09:22:13;0.63;;;0.50;;
17151;SDS011;8691;50.828;4.700;2022-10-15T09:24:38;0.82;;;0.50;;
17151;SDS011;8691;50.828;4.700;2022-10-15T09:27:11;0.83;;;0.50;;
17151;SDS011;8691;50.828;4.700;2022-10-15T09:29:38;1.60;;;0.60;;
17151;SDS011;8691;50.828;4.700;2022-10-15T09:34:34;0.68;;;0.47;;
17151;SDS011;8691;50.828;4.700;2022-10-15T09:37:01;1.17;;;0.70;;
17151;SDS011;8691;50.828;4.700;2022-10-15T09:42:26;1.20;;;0.50;;
17151;SDS011;8691;50.828;4.700;2022-10-15T09:44:36;0.50;;;0.50;;
17151;SDS011;8691;50.828;4.700;2022-10-15T09:47:09;0.50;;;0.50;;
17151;SDS011;8691;50.828;4.700;2022-10-15T09:49:30;0.65;;;0.57;;
17151;SDS011;8691;50.828;4.700;2022-10-15T09:52:08;1.37;;;0.40;;
17151;SDS011;8691;50.828;4.700;2022-10-15T09:57:14;2.07;;;0.77;;
17151;SDS011;8691;50.828;4.700;2022-10-15T09:59:53;0.87;;;0.63;;
17151;SDS011;8691;50.828;4.700;2022-10-15T10:02:21;0.80;;;0.70;;
17151;SDS011;8691;50.828;4.700;2022-10-15T10:04:47;1.60;;;0.70;;
17151;SDS011;8691;50.828;4.700;2022-10-15T10:07:30;1.30;;;0.70;;
17151;SDS011;8691;50.828;4.700;2022-10-15T10:09:57;2.20;;;0.70;;
17151;SDS011;8691;50.828;4.700;2022-10-15T10:12:33;0.70;;;0.63;;
17151;SDS011;8691;50.828;4.700;2022-10-15T10:15:05;0.60;;;0.60;;
17151;SDS011;8691;50.828;4.700;2022-10-15T10:17:35;0.87;;;0.63;;
17151;SDS011;8691;50.828;4.700;2022-10-15T10:20:08;1.37;;;0.87;;
17151;SDS011;8691;50.828;4.700;2022-10-15T10:22:40;1.30;;;0.70;;
17151;SDS011;8691;50.828;4.700;2022-10-15T10:27:54;1.07;;;0.60;;
17151;SDS011;8691;50.828;4.700;2022-10-15T10:30:20;1.10;;;1.00;;
17151;SDS011;8691;50.828;4.700;2022-10-15T10:32:47;0.73;;;0.60;;
17151;SDS011;8691;50.828;4.700;2022-10-15T10:35:20;1.60;;;0.60;;
17151;SDS011;8691;50.828;4.700;2022-10-15T10:37:46;0.80;;;0.50;;
17151;SDS011;8691;50.828;4.700;2022-10-15T10:40:25;1.90;;;0.60;;
17151;SDS011;8691;50.828;4.700;2022-10-15T10:43:11;1.60;;;0.57;;
17151;SDS011;8691;50.828;4.700;2022-10-15T10:45:56;0.80;;;0.50;;
17151;SDS011;8691;50.828;4.700;2022-10-15T10:48:26;1.63;;;0.63;;
17151;SDS011;8691;50.828;4.700;2022-10-15T10:51:05;0.70;;;0.50;;
17151;SDS011;8691;50.828;4.700;2022-10-15T10:53:30;2.50;;;0.80;;
17151;SDS011;8691;50.828;4.700;2022-10-15T10:55:57;0.70;;;0.70;;
17151;SDS011;8691;50.828;4.700;2022-10-15T10:58:23;1.30;;;0.53;;
17151;SDS011;8691;50.828;4.700;2022-10-15T11:00:51;0.60;;;0.60;;
17151;SDS011;8691;50.828;4.700;2022-10-15T11:05:55;0.73;;;0.40;;
17151;SDS011;8691;50.828;4.700;2022-10-15T11:08:26;0.50;;;0.50;;
17151;SDS011;8691;50.828;4.700;2022-10-15T11:13:42;1.23;;;0.50;;
17151;SDS011;8691;50.828;4.700;2022-10-15T11:21:42;1.03;;;0.67;;
17151;SDS011;8691;50.828;4.700;2022-10-15T11:24:34;1.60;;;0.60;;
17151;SDS011;8691;50.828;4.700;2022-10-15T11:26:53;0.85;;;0.70;;
17151;SDS011;8691;50.828;4.700;2022-10-15T11:29:35;0.97;;;0.70;;
17151;SDS011;8691;50.828;4.700;2022-10-15T11:32:16;0.90;;;0.80;;
17151;SDS011;8691;50.828;4.700;2022-10-15T11:42:41;0.90;;;0.57;;
17151;SDS011;8691;50.828;4.700;2022-10-15T11:45:16;1.43;;;0.70;;
17151;SDS011;8691;50.828;4.700;2022-10-15T11:47:49;1.37;;;0.70;;
17151;SDS011;8691;50.828;4.700;2022-10-15T11:55:41;1.10;;;0.60;;
17151;SDS011;8691;50.828;4.700;2022-10-15T12:00:56;1.47;;;0.93;;
17151;SDS011;8691;50.828;4.700;2022-10-15T12:03:22;2.30;;;0.70;;
17151;SDS011;8691;50.828;4.700;2022-10-15T12:05:58;0.90;;;0.70;;
17151;SDS011;8691;50.828;4.700;2022-10-15T12:08:25;0.57;;;0.50;;
17151;SDS011;8691;50.828;4.700;2022-10-15T12:10:56;1.00;;;0.70;;
17151;SDS011;8691;50.828;4.700;2022-10-15T12:13:39;1.38;;;0.68;;
17151;SDS011;8691;50.828;4.700;2022-10-15T12:16:18;1.07;;;0.63;;
17151;SDS011;8691;50.828;4.700;2022-10-15T12:18:49;0.60;;;0.60;;
17151;SDS011;8691;50.828;4.700;2022-10-15T12:21:59;2.87;;;1.83;;
17151;SDS011;8691;50.828;4.700;2022-10-15T12:23:56;1.15;;;0.70;;
17151;SDS011;8691;50.828;4.700;2022-10-15T12:28:51;0.67;;;0.67;;
17151;SDS011;8691;50.828;4.700;2022-10-15T12:31:17;0.70;;;0.70;;
17151;SDS011;8691;50.828;4.700;2022-10-15T12:33:46;0.90;;;0.70;;
17151;SDS011;8691;50.828;4.700;2022-10-15T12:36:22;0.70;;;0.70;;
17151;SDS011;8691;50.828;4.700;2022-10-15T12:41:33;0.80;;;0.70;;
17151;SDS011;8691;50.828;4.700;2022-10-15T12:43:52;1.10;;;0.70;;
17151;SDS011;8691;50.828;4.700;2022-10-15T12:46:20;0.90;;;0.60;;
17151;SDS011;8691;50.828;4.700;2022-10-15T12:48:46;0.73;;;0.70;;
17151;SDS011;8691;50.828;4.700;2022-10-15T12:53:50;1.23;;;0.80;;
17151;SDS011;8691;50.828;4.700;2022-10-15T12:58:43;0.80;;;0.60;;
17151;SDS011;8691;50.828;4.700;2022-10-15T13:03:40;1.07;;;0.67;;
17151;SDS011;8691;50.828;4.700;2022-10-15T13:06:13;1.02;;;0.60;;
17151;SDS011;8691;50.828;4.700;2022-10-15T13:08:48;0.40;;;0.40;;
17151;SDS011;8691;50.828;4.700;2022-10-15T13:11:29;1.13;;;0.60;;
17151;SDS011;8691;50.828;4.700;2022-10-15T13:13:57;1.20;;;0.50;;
17151;SDS011;8691;50.828;4.700;2022-10-15T13:16:24;0.77;;;0.50;;
17151;SDS011;8691;50.828;4.700;2022-10-15T13:18:51;1.07;;;0.60;;
17151;SDS011;8691;50.828;4.700;2022-10-15T13:21:17;1.10;;;0.57;;
17151;SDS011;8691;50.828;4.700;2022-10-15T13:23:45;2.58;;;0.80;;
17151;SDS011;8691;50.828;4.700;2022-10-15T13:26:12;1.15;;;0.70;;
17151;SDS011;8691;50.828;4.700;2022-10-15T13:28:41;2.53;;;0.70;;
17151;SDS011;8691;50.828;4.700;2022-10-15T13:31:19;1.10;;;0.57;;
17151;SDS011;8691;50.828;4.700;2022-10-15T13:33:44;1.20;;;0.60;;
17151;SDS011;8691;50.828;4.700;2022-10-15T13:36:23;1.00;;;0.50;;
17151;SDS011;8691;50.828;4.700;2022-10-15T13:38:54;2.20;;;0.77;;
17151;SDS011;8691;50.828;4.700;2022-10-15T13:41:25;2.37;;;0.67;;
17151;SDS011;8691;50.828;4.700;2022-10-15T13:43:54;2.33;;;0.60;;
17151;SDS011;8691;50.828;4.700;2022-10-15T13:46:22;1.23;;;0.70;;
17151;SDS011;8691;50.828;4.700;2022-10-15T13:48:49;2.58;;;0.68;;
17151;SDS011;8691;50.828;4.700;2022-10-15T13:51:16;1.50;;;0.70;;
17151;SDS011;8691;50.828;4.700;2022-10-15T13:53:43;2.42;;;0.85;;
17151;SDS011;8691;50.828;4.700;2022-10-15T13:56:23;1.52;;;0.60;;
17151;SDS011;8691;50.828;4.700;2022-10-15T13:58:52;1.77;;;0.70;;
17151;SDS011;8691;50.828;4.700;2022-10-15T14:01:19;2.15;;;0.90;;
17151;SDS011;8691;50.828;4.700;2022-10-15T14:03:49;2.10;;;0.70;;
17151;SDS011;8691;50.828;4.700;2022-10-15T14:06:25;3.63;;;0.90;;
17151;SDS011;8691;50.828;4.700;2022-10-15T14:08:52;2.10;;;0.90;;
17151;SDS011;8691;50.828;4.700;2022-10-15T14:11:20;2.13;;;0.73;;
17151;SDS011;8691;50.828;4.700;2022-10-15T14:13:48;3.47;;;0.80;;
17151;SDS011;8691;50.828;4.700;2022-10-15T14:16:26;1.90;;;0.80;;
17151;SDS011;8691;50.828;4.700;2022-10-15T14:18:51;3.73;;;1.03;;
17151;SDS011;8691;50.828;4.700;2022-10-15T14:21:18;2.43;;;0.80;;
17151;SDS011;8691;50.828;4.700;2022-10-15T14:23:44;2.62;;;1.00;;
17151;SDS011;8691;50.828;4.700;2022-10-15T14:26:11;2.30;;;0.70;;
17151;SDS011;8691;50.828;4.700;2022-10-15T14:28:38;1.93;;;0.80;;
17151;SDS011;8691;50.828;4.700;2022-10-15T14:31:05;2.00;;;0.77;;
17151;SDS011;8691;50.828;4.700;2022-10-15T14:33:34;1.60;;;0.70;;
17151;SDS011;8691;50.828;4.700;2022-10-15T14:36:10;3.63;;;1.03;;
17151;SDS011;8691;50.828;4.700;2022-10-15T14:38:34;2.33;;;0.90;;
17151;SDS011;8691;50.828;4.700;2022-10-15T14:41:02;2.83;;;0.95;;
17151;SDS011;8691;50.828;4.700;2022-10-15T14:43:31;2.93;;;0.80;;
17151;SDS011;8691;50.828;4.700;2022-10-15T14:45:56;3.78;;;1.00;;
17151;SDS011;8691;50.828;4.700;2022-10-15T14:48:25;2.27;;;0.93;;
17151;SDS011;8691;50.828;4.700;2022-10-15T14:50:57;1.60;;;0.70;;
17151;SDS011;8691;50.828;4.700;2022-10-15T14:53:24;3.15;;;0.93;;
17151;SDS011;8691;50.828;4.700;2022-10-15T14:56:00;1.90;;;1.07;;
17151;SDS011;8691;50.828;4.700;2022-10-15T14:58:26;1.90;;;0.80;;
17151;SDS011;8691;50.828;4.700;2022-10-15T15:01:03;3.10;;;0.90;;
17151;SDS011;8691;50.828;4.700;2022-10-15T15:03:26;1.87;;;0.80;;
17151;SDS011;8691;50.828;4.700;2022-10-15T15:05:53;2.77;;;0.93;;
17151;SDS011;8691;50.828;4.700;2022-10-15T15:08:22;1.87;;;0.80;;
17151;SDS011;8691;50.828;4.700;2022-10-15T15:10:49;3.10;;;0.90;;
17151;SDS011;8691;50.828;4.700;2022-10-15T15:13:19;2.83;;;0.90;;
17151;SDS011;8691;50.828;4.700;2022-10-15T15:15:45;2.07;;;1.10;;
17151;SDS011;8691;50.828;4.700;2022-10-15T15:18:12;3.78;;;1.10;;
17151;SDS011;8691;50.828;4.700;2022-10-15T15:20:40;3.28;;;1.12;;
17151;SDS011;8691;50.828;4.700;2022-10-15T15:23:07;4.10;;;1.00;;
17151;SDS011;8691;50.828;4.700;2022-10-15T15:25:33;2.88;;;0.93;;
17151;SDS011;8691;50.828;4.700;2022-10-15T15:28:00;3.42;;;1.00;;
17151;SDS011;8691;50.828;4.700;2022-10-15T15:30:28;2.43;;;1.07;;
17151;SDS011;8691;50.828;4.700;2022-10-15T15:32:54;2.07;;;0.80;;
17151;SDS011;8691;50.828;4.700;2022-10-15T15:35:22;3.90;;;1.08;;
17151;SDS011;8691;50.828;4.700;2022-10-15T15:37:59;4.87;;;0.90;;
17151;SDS011;8691;50.828;4.700;2022-10-15T15:40:26;2.67;;;1.00;;
17151;SDS011;8691;50.828;4.700;2022-10-15T15:42:53;3.38;;;0.95;;
17151;SDS011;8691;50.828;4.700;2022-10-15T15:45:21;2.80;;;1.30;;
17151;SDS011;8691;50.828;4.700;2022-10-15T15:47:46;4.80;;;1.10;;
17151;SDS011;8691;50.828;4.700;2022-10-15T15:50:14;4.53;;;1.17;;
17151;SDS011;8691;50.828;4.700;2022-10-15T15:52:40;3.47;;;0.90;;
17151;SDS011;8691;50.828;4.700;2022-10-15T15:55:08;2.50;;;0.97;;
17151;SDS011;8691;50.828;4.700;2022-10-15T15:57:35;4.45;;;1.02;;
17151;SDS011;8691;50.828;4.700;2022-10-15T16:00:02;4.65;;;1.30;;
17151;SDS011;8691;50.828;4.700;2022-10-15T16:02:28;4.37;;;1.30;;
17151;SDS011;8691;50.828;4.700;2022-10-15T16:04:55;4.15;;;1.10;;
17151;SDS011;8691;50.828;4.700;2022-10-15T16:07:22;3.28;;;1.23;;
17151;SDS011;8691;50.828;4.700;2022-10-15T16:09:49;3.97;;;1.30;;
17151;SDS011;8691;50.828;4.700;2022-10-15T16:12:15;2.63;;;1.20;;
17151;SDS011;8691;50.828;4.700;2022-10-15T16:14:42;4.15;;;1.45;;
17151;SDS011;8691;50.828;4.700;2022-10-15T16:17:09;2.53;;;0.97;;
17151;SDS011;8691;50.828;4.700;2022-10-15T16:19:36;6.03;;;1.30;;